createdAt,value
2023-05-12T00:00:27.085Z,92412.00
2023-05-12T00:01:27.062Z,92410.00
2023-05-12T00:02:27.127Z,92408.00
2023-05-12T00:03:27.156Z,92408.00
2023-05-12T00:04:27.071Z,92408.00
2023-05-12T00:05:27.025Z,92406.00
2023-05-12T00:06:27.026Z,92406.00
2023-05-12T00:07:27.011Z,92406.00
2023-05-12T00:08:27.010Z,92406.00
2023-05-12T00:09:26.997Z,92406.00
2023-05-12T00:10:27.006Z,92406.00
2023-05-12T00:11:27.027Z,92406.00
2023-05-12T00:12:27.002Z,92405.00
2023-05-12T00:13:27.034Z,92399.00
2023-05-12T00:14:27.010Z,92399.00
2023-05-12T00:15:27.048Z,92395.00
2023-05-12T00:16:27.087Z,92393.00
2023-05-12T00:17:27.038Z,92393.00
2023-05-12T00:18:27.053Z,92393.00
2023-05-12T00:19:27.031Z,92389.00
2023-05-12T00:20:27.060Z,92393.00
2023-05-12T00:21:27.050Z,92395.00
2023-05-12T00:22:27.073Z,92395.00
2023-05-12T00:23:27.069Z,92395.00
2023-05-12T00:24:27.073Z,92399.00
2023-05-12T00:25:27.088Z,92401.00
2023-05-12T00:26:27.085Z,92395.00
2023-05-12T00:27:27.108Z,92395.00
2023-05-12T00:28:27.114Z,92393.00
2023-05-12T00:29:27.125Z,92395.00
2023-05-12T00:30:27.132Z,92395.00
2023-05-12T00:31:27.185Z,92393.00
2023-05-12T00:32:27.207Z,92397.00
2023-05-12T00:33:27.156Z,92395.00
2023-05-12T00:34:27.149Z,92395.00
2023-05-12T00:35:27.168Z,92393.00
2023-05-12T00:36:27.169Z,92391.00
2023-05-12T00:37:27.181Z,92393.00
2023-05-12T00:38:27.180Z,92393.00
2023-05-12T00:39:27.204Z,92395.00
2023-05-12T00:40:27.206Z,92397.00
2023-05-12T00:41:27.213Z,92397.00
2023-05-12T00:42:27.209Z,92393.00
2023-05-12T00:43:27.233Z,92395.00
2023-05-12T00:44:27.251Z,92395.00
2023-05-12T00:45:27.248Z,92395.00
2023-05-12T00:46:27.348Z,92395.00
2023-05-12T00:47:27.332Z,92393.00
2023-05-12T00:48:27.280Z,92395.00
2023-05-12T00:49:27.295Z,92393.00
2023-05-12T00:50:27.296Z,92393.00
2023-05-12T00:51:27.308Z,92391.00
2023-05-12T00:52:27.313Z,92389.00
2023-05-12T00:53:34.995Z,92387.00
2023-05-12T00:54:28.342Z,92387.00
2023-05-12T00:55:27.309Z,92387.00
2023-05-12T00:56:27.299Z,92385.00
2023-05-12T00:57:27.401Z,92383.00
2023-05-12T00:58:27.280Z,92383.00
2023-05-12T00:59:27.272Z,92383.00
2023-05-12T01:00:27.268Z,92381.00
2023-05-12T01:01:27.292Z,92381.00
2023-05-12T01:02:27.305Z,92379.00
2023-05-12T01:03:27.329Z,92377.00
2023-05-12T01:04:27.229Z,92379.00
2023-05-12T01:05:27.223Z,92381.00
2023-05-12T01:06:27.226Z,92377.00
2023-05-12T01:07:27.201Z,92381.00
2023-05-12T01:08:27.203Z,92383.00
2023-05-12T01:09:27.193Z,92377.00
2023-05-12T01:10:27.184Z,92379.00
2023-05-12T01:11:27.178Z,92379.00
2023-05-12T01:12:27.181Z,92381.00
2023-05-12T01:13:27.160Z,92379.00
2023-05-12T01:14:27.151Z,92379.00
2023-05-12T01:15:27.141Z,92379.00
2023-05-12T01:16:27.155Z,92379.00
2023-05-12T01:17:27.176Z,92379.00
2023-05-12T01:18:27.219Z,92381.00
2023-05-12T01:19:27.113Z,92379.00
2023-05-12T01:20:27.123Z,92379.00
2023-05-12T01:21:27.125Z,92381.00
2023-05-12T01:22:27.133Z,92379.00
2023-05-12T01:23:27.152Z,92379.00
2023-05-12T01:24:27.181Z,92383.00
2023-05-12T01:25:27.168Z,92381.00
2023-05-12T01:26:27.193Z,92381.00
2023-05-12T01:27:27.197Z,92379.00
2023-05-12T01:28:27.209Z,92379.00
2023-05-12T01:29:27.277Z,92375.00
2023-05-12T01:30:27.243Z,92377.00
2023-05-12T01:31:27.355Z,92377.00
2023-05-12T01:32:27.301Z,92379.00
2023-05-12T01:33:27.284Z,92381.00
2023-05-12T01:34:27.300Z,92379.00
2023-05-12T01:35:27.311Z,92377.00
2023-05-12T01:36:27.335Z,92377.00
2023-05-12T01:37:27.356Z,92379.00
2023-05-12T01:38:27.436Z,92373.00
2023-05-12T01:39:27.379Z,92375.00
2023-05-12T01:40:27.399Z,92375.00
2023-05-12T01:41:27.414Z,92373.00
2023-05-12T01:42:27.434Z,92375.00
2023-05-12T01:43:27.481Z,92375.00
2023-05-12T01:44:27.484Z,92375.00
2023-05-12T01:45:27.506Z,92379.00
2023-05-12T01:46:27.595Z,92381.00
2023-05-12T01:47:27.556Z,92377.00
2023-05-12T01:48:27.532Z,92381.00
2023-05-12T01:49:27.545Z,92379.00
2023-05-12T01:50:27.562Z,92381.00
2023-05-12T01:51:27.577Z,92381.00
2023-05-12T01:52:27.602Z,92381.00
2023-05-12T01:53:27.607Z,92379.00
2023-05-12T01:54:27.626Z,92381.00
2023-05-12T01:55:27.661Z,92375.00
2023-05-12T01:56:27.678Z,92375.00
2023-05-12T01:57:27.692Z,92377.00
2023-05-12T01:58:27.714Z,92377.00
2023-05-12T01:59:27.757Z,92379.00
2023-05-12T02:00:27.762Z,92379.00
2023-05-12T02:01:27.826Z,92381.00
2023-05-12T02:02:27.851Z,92381.00
2023-05-12T02:03:27.904Z,92383.00
2023-05-12T02:04:27.826Z,92379.00
2023-05-12T02:05:27.845Z,92377.00
2023-05-12T02:06:27.867Z,92375.00
2023-05-12T02:07:27.885Z,92377.00
2023-05-12T02:08:27.909Z,92375.00
2023-05-12T02:09:27.925Z,92375.00
2023-05-12T02:10:27.945Z,92373.00
2023-05-12T02:11:27.972Z,92375.00
2023-05-12T02:12:28.006Z,92373.00
2023-05-12T02:13:28.008Z,92371.00
2023-05-12T02:14:28.032Z,92371.00
2023-05-12T02:15:28.075Z,92371.00
2023-05-12T02:16:28.120Z,92371.00
2023-05-12T02:17:28.098Z,92373.00
2023-05-12T02:18:28.154Z,92369.00
2023-05-12T02:19:28.143Z,92371.00
2023-05-12T02:20:28.166Z,92373.00
2023-05-12T02:21:28.208Z,92373.00
2023-05-12T02:22:28.228Z,92371.00
2023-05-12T02:23:28.256Z,92375.00
2023-05-12T02:24:28.268Z,92375.00
2023-05-12T02:25:28.301Z,92373.00
2023-05-12T02:26:28.316Z,92375.00
2023-05-12T02:27:28.335Z,92379.00
2023-05-12T02:28:28.366Z,92381.00
2023-05-12T02:29:28.386Z,92379.00
2023-05-12T02:30:28.413Z,92379.00
2023-05-12T02:31:28.458Z,92383.00
2023-05-12T02:32:28.501Z,92377.00
2023-05-12T02:33:28.474Z,92379.00
2023-05-12T02:34:28.564Z,92377.00
2023-05-12T02:35:28.513Z,92379.00
2023-05-12T02:36:28.540Z,92377.00
2023-05-12T02:37:28.566Z,92377.00
2023-05-12T02:38:28.593Z,92379.00
2023-05-12T02:39:28.610Z,92375.00
2023-05-12T02:40:28.635Z,92375.00
2023-05-12T02:41:28.654Z,92375.00
2023-05-12T02:42:28.681Z,92371.00
2023-05-12T02:43:28.701Z,92377.00
2023-05-12T02:44:28.726Z,92373.00
2023-05-12T02:45:28.762Z,92377.00
2023-05-12T02:46:28.775Z,92377.00
2023-05-12T02:47:28.827Z,92375.00
2023-05-12T02:48:28.826Z,92371.00
2023-05-12T02:49:28.849Z,92377.00
2023-05-12T02:50:28.874Z,92377.00
2023-05-12T02:51:28.900Z,92379.00
2023-05-12T02:52:28.934Z,92379.00
2023-05-12T02:53:28.954Z,92377.00
2023-05-12T02:54:28.974Z,92377.00
2023-05-12T02:55:28.995Z,92381.00
2023-05-12T02:56:29.010Z,92377.00
2023-05-12T02:57:29.029Z,92373.00
2023-05-12T02:58:29.057Z,92375.00
2023-05-12T02:59:29.076Z,92375.00
2023-05-12T03:00:29.107Z,92371.00
2023-05-12T03:01:29.160Z,92373.00
2023-05-12T03:02:29.201Z,92373.00
2023-05-12T03:03:29.242Z,92377.00
2023-05-12T03:04:29.167Z,92375.00
2023-05-12T03:05:29.197Z,92377.00
2023-05-12T03:06:29.219Z,92377.00
2023-05-12T03:07:29.236Z,92379.00
2023-05-12T03:08:29.242Z,92379.00
2023-05-12T03:09:29.267Z,92385.00
2023-05-12T03:10:29.279Z,92379.00
2023-05-12T03:11:29.308Z,92375.00
2023-05-12T03:12:29.353Z,92381.00
2023-05-12T03:13:29.360Z,92375.00
2023-05-12T03:14:29.353Z,92377.00
2023-05-12T03:15:29.377Z,92377.00
2023-05-12T03:16:29.481Z,92377.00
2023-05-12T03:17:29.489Z,92377.00
2023-05-12T03:18:29.536Z,92377.00
2023-05-12T03:19:29.472Z,92377.00
2023-05-12T03:20:29.487Z,92379.00
2023-05-12T03:21:29.509Z,92377.00
2023-05-12T03:22:29.568Z,92379.00
2023-05-12T03:23:29.558Z,92377.00
2023-05-12T03:24:29.613Z,92381.00
2023-05-12T03:25:29.599Z,92383.00
2023-05-12T03:26:29.653Z,92383.00
2023-05-12T03:27:29.676Z,92381.00
2023-05-12T03:28:29.745Z,92381.00
2023-05-12T03:29:29.742Z,92383.00
2023-05-12T03:30:29.745Z,92381.00
2023-05-12T03:31:29.831Z,92381.00
2023-05-12T03:32:29.849Z,92387.00
2023-05-12T03:33:29.820Z,92383.00
2023-05-12T03:34:29.864Z,92383.00
2023-05-12T03:35:29.892Z,92385.00
2023-05-12T03:36:29.927Z,92383.00
2023-05-12T03:37:29.942Z,92383.00
2023-05-12T03:38:29.970Z,92383.00
2023-05-12T03:39:30.001Z,92381.00
2023-05-12T03:40:30.045Z,92381.00
2023-05-12T03:41:30.069Z,92383.00
2023-05-12T03:42:30.106Z,92383.00
2023-05-12T03:43:30.141Z,92385.00
2023-05-12T03:44:30.158Z,92387.00
2023-05-12T03:45:30.195Z,92387.00
2023-05-12T03:46:30.255Z,92391.00
2023-05-12T03:47:30.443Z,92385.00
2023-05-12T03:48:30.341Z,92385.00
2023-05-12T03:49:30.316Z,92383.00
2023-05-12T03:50:30.349Z,92385.00
2023-05-12T03:51:30.372Z,92383.00
2023-05-12T03:52:30.401Z,92381.00
2023-05-12T03:53:30.433Z,92381.00
2023-05-12T03:54:30.481Z,92383.00
2023-05-12T03:55:30.493Z,92385.00
2023-05-12T03:56:30.524Z,92381.00
2023-05-12T03:57:30.552Z,92385.00
2023-05-12T03:58:30.587Z,92385.00
2023-05-12T03:59:30.627Z,92387.00
2023-05-12T04:00:30.646Z,92387.00
2023-05-12T04:01:30.679Z,92383.00
2023-05-12T04:02:30.790Z,92385.00
2023-05-12T04:03:30.841Z,92385.00
2023-05-12T04:04:30.770Z,92383.00
2023-05-12T04:05:30.802Z,92381.00
2023-05-12T04:06:30.826Z,92385.00
2023-05-12T04:07:30.858Z,92385.00
2023-05-12T04:08:30.900Z,92383.00
2023-05-12T04:09:30.915Z,92383.00
2023-05-12T04:10:30.946Z,92385.00
2023-05-12T04:11:30.979Z,92385.00
2023-05-12T04:12:31.032Z,92383.00
2023-05-12T04:13:31.047Z,92381.00
2023-05-12T04:14:41.668Z,92383.00
2023-05-12T04:15:32.060Z,92381.00
2023-05-12T04:16:31.111Z,92383.00
2023-05-12T04:17:31.097Z,92383.00
2023-05-12T04:18:31.086Z,92381.00
2023-05-12T04:19:31.038Z,92381.00
2023-05-12T04:20:31.040Z,92383.00
2023-05-12T04:21:31.025Z,92381.00
2023-05-12T04:22:31.017Z,92381.00
2023-05-12T04:23:31.008Z,92379.00
2023-05-12T04:24:31.000Z,92379.00
2023-05-12T04:25:30.992Z,92377.00
2023-05-12T04:26:30.986Z,92377.00
2023-05-12T04:27:30.976Z,92379.00
2023-05-12T04:28:30.975Z,92379.00
2023-05-12T04:29:30.972Z,92379.00
2023-05-12T04:30:30.950Z,92379.00
2023-05-12T04:31:31.008Z,92381.00
2023-05-12T04:32:31.032Z,92383.00
2023-05-12T04:33:31.072Z,92383.00
2023-05-12T04:34:31.091Z,92383.00
2023-05-12T04:35:31.117Z,92385.00
2023-05-12T04:36:31.154Z,92385.00
2023-05-12T04:37:31.181Z,92385.00
2023-05-12T04:38:31.216Z,92385.00
2023-05-12T04:39:31.228Z,92385.00
2023-05-12T04:40:32.782Z,92383.00
2023-05-12T04:41:31.261Z,92385.00
2023-05-12T04:42:31.255Z,92383.00
2023-05-12T04:44:31.240Z,92387.00
2023-05-12T04:45:31.253Z,92387.00
2023-05-12T04:46:31.249Z,92387.00
2023-05-12T04:47:31.222Z,92389.00
2023-05-12T04:48:31.207Z,92387.00
2023-05-12T04:49:31.196Z,92391.00
2023-05-12T04:50:31.186Z,92389.00
2023-05-12T04:51:31.186Z,92393.00
2023-05-12T04:52:31.171Z,92391.00
2023-05-12T04:53:31.168Z,92393.00
2023-05-12T04:54:31.164Z,92391.00
2023-05-12T04:55:31.158Z,92389.00
2023-05-12T04:56:31.150Z,92389.00
2023-05-12T04:57:31.135Z,92393.00
2023-05-12T04:58:31.121Z,92391.00
2023-05-12T04:59:31.124Z,92395.00
2023-05-12T05:00:31.114Z,92393.00
2023-05-12T05:01:31.151Z,92393.00
2023-05-12T05:02:31.163Z,92393.00
2023-05-12T05:03:31.200Z,92397.00
2023-05-12T05:04:31.080Z,92397.00
2023-05-12T05:05:31.072Z,92399.00
2023-05-12T05:06:31.069Z,92401.00
2023-05-12T05:07:31.061Z,92401.00
2023-05-12T05:08:31.049Z,92403.00
2023-05-12T05:09:31.045Z,92403.00
2023-05-12T05:10:31.071Z,92403.00
2023-05-12T05:11:31.024Z,92403.00
2023-05-12T05:12:31.015Z,92403.00
2023-05-12T05:13:31.006Z,92401.00
2023-05-12T05:14:31.035Z,92403.00
2023-05-12T05:15:30.987Z,92405.00
2023-05-12T05:16:31.024Z,92405.00
2023-05-12T05:17:31.002Z,92405.00
2023-05-12T05:18:31.005Z,92405.00
2023-05-12T05:20:32.334Z,92408.00
2023-05-12T05:21:30.981Z,92408.00
2023-05-12T05:22:30.949Z,92408.00
2023-05-12T05:23:30.941Z,92414.00
2023-05-12T05:24:30.930Z,92412.00
2023-05-12T05:25:30.919Z,92408.00
2023-05-12T05:26:30.931Z,92408.00
2023-05-12T05:27:30.904Z,92406.00
2023-05-12T05:28:30.907Z,92410.00
2023-05-12T05:29:30.888Z,92412.00
2023-05-12T05:30:30.877Z,92414.00
2023-05-12T05:31:30.908Z,92416.00
2023-05-12T05:32:30.930Z,92414.00
2023-05-12T05:33:31.426Z,92414.00
2023-05-12T05:34:30.885Z,92420.00
2023-05-12T05:35:30.848Z,92418.00
2023-05-12T05:36:31.690Z,92412.00
2023-05-12T05:37:30.838Z,92412.00
2023-05-12T05:38:30.817Z,92420.00
2023-05-12T05:39:30.892Z,92418.00
2023-05-12T05:40:41.336Z,92420.00
2023-05-12T05:41:31.808Z,92416.00
2023-05-12T05:42:30.788Z,92418.00
2023-05-12T05:43:30.778Z,92420.00
2023-05-12T05:44:30.777Z,92424.00
2023-05-12T05:45:30.782Z,92418.00
2023-05-12T05:46:30.813Z,92420.00
2023-05-12T05:47:30.780Z,92422.00
2023-05-12T05:48:30.734Z,92420.00
2023-05-12T05:49:30.732Z,92424.00
2023-05-12T05:50:30.719Z,92422.00
2023-05-12T05:51:30.721Z,92420.00
2023-05-12T05:52:30.746Z,92420.00
2023-05-12T05:53:30.754Z,92422.00
2023-05-12T05:54:30.764Z,92424.00
2023-05-12T05:55:30.737Z,92422.00
2023-05-12T05:56:30.730Z,92422.00
2023-05-12T05:57:30.736Z,92420.00
2023-05-12T05:58:30.719Z,92424.00
2023-05-12T05:59:30.721Z,92426.00
2023-05-12T06:00:30.723Z,92422.00
2023-05-12T06:01:30.721Z,92422.00
2023-05-12T06:02:30.790Z,92424.00
2023-05-12T06:03:30.753Z,92422.00
2023-05-12T06:04:30.747Z,92424.00
2023-05-12T06:05:30.739Z,92422.00
2023-05-12T06:06:30.744Z,92424.00
2023-05-12T06:07:30.724Z,92420.00
2023-05-12T06:08:30.721Z,92422.00
2023-05-12T06:09:30.705Z,92416.00
2023-05-12T06:10:30.704Z,92420.00
2023-05-12T06:11:30.706Z,92418.00
2023-05-12T06:12:30.707Z,92420.00
2023-05-12T06:13:30.703Z,92418.00
2023-05-12T06:14:30.709Z,92418.00
2023-05-12T06:15:30.712Z,92420.00
2023-05-12T06:16:30.784Z,92418.00
2023-05-12T06:17:32.589Z,92420.00
2023-05-12T06:18:30.821Z,92420.00
2023-05-12T06:19:30.757Z,92418.00
2023-05-12T06:20:30.772Z,92418.00
2023-05-12T06:21:30.798Z,92414.00
2023-05-12T06:22:30.802Z,92418.00
2023-05-12T06:23:30.825Z,92420.00
2023-05-12T06:24:30.833Z,92418.00
2023-05-12T06:25:30.852Z,92420.00
2023-05-12T06:26:30.864Z,92420.00
2023-05-12T06:27:30.875Z,92422.00
2023-05-12T06:28:30.896Z,92428.00
2023-05-12T06:29:30.905Z,92424.00
2023-05-12T06:30:30.917Z,92422.00
2023-05-12T06:31:30.938Z,92428.00
2023-05-12T06:32:30.990Z,92430.00
2023-05-12T06:33:30.929Z,92428.00
2023-05-12T06:34:31.012Z,92430.00
2023-05-12T06:35:31.041Z,92428.00
2023-05-12T06:36:31.094Z,92434.00
2023-05-12T06:37:32.090Z,92430.00
2023-05-12T06:38:31.085Z,92426.00
2023-05-12T06:39:31.066Z,92428.00
2023-05-12T06:40:31.098Z,92426.00
2023-05-12T06:41:31.083Z,92432.00
2023-05-12T06:42:31.942Z,92426.00
2023-05-12T06:43:31.041Z,92428.00
2023-05-12T06:44:31.042Z,92430.00
2023-05-12T06:45:31.028Z,92426.00
2023-05-12T06:46:31.102Z,92430.00
2023-05-12T06:47:31.053Z,92426.00
2023-05-12T06:48:31.033Z,92426.00
2023-05-12T06:49:31.021Z,92424.00
2023-05-12T06:50:30.994Z,92424.00
2023-05-12T06:51:31.042Z,92424.00
2023-05-12T06:52:31.050Z,92422.00
2023-05-12T06:53:31.073Z,92420.00
2023-05-12T06:54:31.106Z,92418.00
2023-05-12T06:55:31.145Z,92422.00
2023-05-12T06:56:31.148Z,92416.00
2023-05-12T06:57:31.170Z,92418.00
2023-05-12T06:58:31.162Z,92420.00
2023-05-12T06:59:31.168Z,92420.00
2023-05-12T07:00:31.178Z,92418.00
2023-05-12T07:01:31.218Z,92416.00
2023-05-12T07:02:31.268Z,92416.00
2023-05-12T07:03:31.235Z,92418.00
2023-05-12T07:04:31.165Z,92420.00
2023-05-12T07:05:31.179Z,92418.00
2023-05-12T07:06:31.157Z,92416.00
2023-05-12T07:07:31.170Z,92418.00
2023-05-12T07:08:31.225Z,92418.00
2023-05-12T07:09:31.201Z,92422.00
2023-05-12T07:10:31.242Z,92414.00
2023-05-12T07:11:31.278Z,92418.00
2023-05-12T07:12:31.329Z,92416.00
2023-05-12T07:13:31.351Z,92418.00
2023-05-12T07:14:31.399Z,92414.00
2023-05-12T07:15:32.945Z,92414.00
2023-05-12T07:16:31.597Z,92414.00
2023-05-12T07:17:31.581Z,92414.00
2023-05-12T07:18:32.053Z,92416.00
2023-05-12T07:19:32.526Z,92412.00
2023-05-12T07:20:31.693Z,92414.00
2023-05-12T07:21:31.695Z,92414.00
2023-05-12T07:22:31.701Z,92416.00
2023-05-12T07:23:32.544Z,92418.00
2023-05-12T07:24:31.734Z,92418.00
2023-05-12T07:25:31.767Z,92410.00
2023-05-12T07:26:32.746Z,92412.00
2023-05-12T07:27:31.733Z,92412.00
2023-05-12T07:28:31.721Z,92408.00
2023-05-12T07:29:31.709Z,92412.00
2023-05-12T07:30:31.701Z,92414.00
2023-05-12T07:31:31.742Z,92412.00
2023-05-12T07:32:31.725Z,92410.00
2023-05-12T07:33:31.691Z,92408.00
2023-05-12T07:34:31.674Z,92408.00
2023-05-12T07:35:31.667Z,92410.00
2023-05-12T07:36:31.662Z,92410.00
2023-05-12T07:37:31.651Z,92410.00
2023-05-12T07:38:31.648Z,92406.00
2023-05-12T07:39:31.641Z,92403.00
2023-05-12T07:40:31.638Z,92403.00
2023-05-12T07:41:32.621Z,92401.00
2023-05-12T07:42:31.893Z,92403.00
2023-05-12T07:43:31.884Z,92403.00
2023-05-12T07:44:32.094Z,92401.00
2023-05-12T07:45:31.890Z,92403.00
2023-05-12T07:46:32.500Z,92401.00
2023-05-12T07:47:31.961Z,92401.00
2023-05-12T07:48:31.986Z,92399.00
2023-05-12T07:49:31.981Z,92401.00
2023-05-12T07:50:32.021Z,92401.00
2023-05-12T07:51:32.059Z,92397.00
2023-05-12T07:52:32.086Z,92397.00
2023-05-12T07:53:32.156Z,92393.00
2023-05-12T07:54:32.103Z,92391.00
2023-05-12T07:55:32.148Z,92391.00
2023-05-12T07:56:32.206Z,92389.00
2023-05-12T07:57:32.235Z,92391.00
2023-05-12T07:58:32.277Z,92389.00
2023-05-12T07:59:32.347Z,92381.00
2023-05-12T08:00:32.401Z,92383.00
2023-05-12T08:01:32.443Z,92381.00
2023-05-12T08:02:32.556Z,92377.00
2023-05-12T08:03:32.635Z,92375.00
2023-05-12T08:04:32.674Z,92373.00
2023-05-12T08:05:33.547Z,92371.00
2023-05-12T08:06:32.763Z,92371.00
2023-05-12T08:07:32.824Z,92373.00
2023-05-12T08:08:32.893Z,92367.00
2023-05-12T08:09:32.945Z,92367.00
2023-05-12T08:10:33.033Z,92365.00
2023-05-12T08:11:33.060Z,92365.00
2023-05-12T08:12:33.124Z,92367.00
2023-05-12T08:13:33.187Z,92363.00
2023-05-12T08:14:33.215Z,92359.00
2023-05-12T08:15:33.225Z,92359.00
2023-05-12T08:16:33.277Z,92358.00
2023-05-12T08:17:33.276Z,92359.00
2023-05-12T08:18:33.351Z,92358.00
2023-05-12T08:19:33.309Z,92356.00
2023-05-12T08:20:33.363Z,92354.00
2023-05-12T08:21:33.382Z,92356.00
2023-05-12T08:22:33.433Z,92356.00
2023-05-12T08:23:33.482Z,92356.00
2023-05-12T08:24:33.561Z,92356.00
2023-05-12T08:25:33.588Z,92354.00
2023-05-12T08:26:33.639Z,92356.00
2023-05-12T08:27:33.795Z,92358.00
2023-05-12T08:28:33.745Z,92356.00
2023-05-12T08:29:33.776Z,92359.00
2023-05-12T08:30:33.862Z,92358.00
2023-05-12T08:31:33.939Z,92359.00
2023-05-12T08:32:34.034Z,92358.00
2023-05-12T08:33:33.842Z,92359.00
2023-05-12T08:34:33.898Z,92359.00
2023-05-12T08:35:33.830Z,92359.00
2023-05-12T08:36:33.840Z,92358.00
2023-05-12T08:37:34.752Z,92358.00
2023-05-12T08:38:33.891Z,92359.00
2023-05-12T08:39:33.960Z,92361.00
2023-05-12T08:40:33.985Z,92359.00
2023-05-12T08:41:34.078Z,92359.00
2023-05-12T08:42:35.067Z,92361.00
2023-05-12T08:43:34.158Z,92359.00
2023-05-12T08:44:35.147Z,92359.00
2023-05-12T08:45:34.145Z,92359.00
2023-05-12T08:46:34.162Z,92358.00
2023-05-12T08:47:34.198Z,92356.00
2023-05-12T08:48:34.162Z,92350.00
2023-05-12T08:49:34.114Z,92356.00
2023-05-12T08:50:34.103Z,92350.00
2023-05-12T08:51:34.098Z,92352.00
2023-05-12T08:52:34.100Z,92352.00
2023-05-12T08:53:34.114Z,92354.00
2023-05-12T08:54:39.946Z,92352.00
2023-05-12T08:55:35.349Z,92356.00
2023-05-12T08:57:34.135Z,92354.00
2023-05-12T08:58:40.906Z,92352.00
2023-05-12T08:59:35.121Z,92350.00
2023-05-12T09:00:34.121Z,92350.00
2023-05-12T09:01:36.576Z,92352.00
2023-05-12T09:02:48.294Z,92352.00
2023-05-12T09:03:35.400Z,92350.00
2023-05-12T09:04:34.392Z,92348.00
2023-05-12T09:05:34.304Z,92346.00
2023-05-12T09:06:34.296Z,92344.00
2023-05-12T09:07:35.069Z,92340.00
2023-05-12T09:08:34.284Z,92344.00
2023-05-12T09:09:34.281Z,92344.00
2023-05-12T09:10:35.766Z,92340.00
2023-05-12T09:11:34.258Z,92340.00
2023-05-12T09:12:34.327Z,92338.00
2023-05-12T09:13:34.248Z,92338.00
2023-05-12T09:14:34.244Z,92336.00
2023-05-12T09:15:34.228Z,92334.00
2023-05-12T09:16:34.316Z,92336.00
2023-05-12T09:17:34.299Z,92338.00
2023-05-12T09:18:34.289Z,92334.00
2023-05-12T09:19:34.300Z,92340.00
2023-05-12T09:20:34.837Z,92336.00
2023-05-12T09:21:34.401Z,92334.00
2023-05-12T09:22:34.445Z,92334.00
2023-05-12T09:23:34.481Z,92330.00
2023-05-12T09:24:34.527Z,92324.00
2023-05-12T09:25:34.558Z,92328.00
2023-05-12T09:26:34.598Z,92328.00
2023-05-12T09:27:34.649Z,92328.00
2023-05-12T09:28:34.691Z,92326.00
2023-05-12T09:29:39.858Z,92326.00
2023-05-12T09:30:35.727Z,92324.00
2023-05-12T09:31:34.745Z,92328.00
2023-05-12T09:32:34.788Z,92326.00
2023-05-12T09:33:34.726Z,92330.00
2023-05-12T09:34:34.788Z,92326.00
2023-05-12T09:35:34.699Z,92328.00
2023-05-12T09:36:34.728Z,92326.00
2023-05-12T09:37:34.674Z,92326.00
2023-05-12T09:38:34.662Z,92326.00
2023-05-12T09:39:34.678Z,92328.00
2023-05-12T09:40:34.671Z,92324.00
2023-05-12T09:41:34.674Z,92324.00
2023-05-12T09:42:34.708Z,92322.00
2023-05-12T09:43:34.757Z,92322.00
2023-05-12T09:44:35.583Z,92326.00
2023-05-12T09:45:34.944Z,92322.00
2023-05-12T09:46:34.954Z,92313.00
2023-05-12T09:47:34.989Z,92324.00
2023-05-12T09:48:35.005Z,92326.00
2023-05-12T09:49:34.994Z,92320.00
2023-05-12T09:50:46.527Z,92320.00
2023-05-12T09:51:35.976Z,92313.00
2023-05-12T09:52:34.971Z,92322.00
2023-05-12T09:53:34.961Z,92322.00
2023-05-12T09:54:34.965Z,92328.00
2023-05-12T09:55:34.946Z,92307.00
2023-05-12T09:56:34.934Z,92309.00
2023-05-12T09:57:34.926Z,92307.00
2023-05-12T09:58:34.937Z,92307.00
2023-05-12T09:59:35.017Z,92307.00
2023-05-12T10:00:58.612Z,92311.00
2023-05-12T10:01:35.938Z,92307.00
2023-05-12T10:02:34.950Z,92301.00
2023-05-12T10:03:34.876Z,92301.00
2023-05-12T10:04:34.902Z,92301.00
2023-05-12T10:05:34.870Z,92301.00
2023-05-12T10:06:34.857Z,92303.00
2023-05-12T10:07:34.902Z,92297.00
2023-05-12T10:08:34.844Z,92293.00
2023-05-12T10:09:34.830Z,92293.00
2023-05-12T10:10:34.825Z,92295.00
2023-05-12T10:11:34.822Z,92291.00
2023-05-12T10:12:34.814Z,92295.00
2023-05-12T10:13:34.832Z,92293.00
2023-05-12T10:14:34.873Z,92291.00
2023-05-12T10:15:34.937Z,92297.00
2023-05-12T10:16:35.000Z,92291.00
2023-05-12T10:17:35.040Z,92291.00
2023-05-12T10:18:36.546Z,92299.00
2023-05-12T10:19:35.165Z,92295.00
2023-05-12T10:20:35.244Z,92287.00
2023-05-12T10:21:35.210Z,92297.00
2023-05-12T10:22:35.258Z,92291.00
2023-05-12T10:23:37.215Z,92291.00
2023-05-12T10:24:35.498Z,92293.00
2023-05-12T10:25:35.548Z,92287.00
2023-05-12T10:26:35.608Z,92285.00
2023-05-12T10:27:35.697Z,92287.00
2023-05-12T10:28:35.712Z,92285.00
2023-05-12T10:29:35.773Z,92285.00
2023-05-12T10:30:35.836Z,92285.00
2023-05-12T10:31:35.923Z,92277.00
2023-05-12T10:32:36.009Z,92274.00
2023-05-12T10:33:36.008Z,92279.00
2023-05-12T10:34:36.099Z,92277.00
2023-05-12T10:35:36.143Z,92274.00
2023-05-12T10:36:36.203Z,92275.00
2023-05-12T10:37:36.259Z,92277.00
2023-05-12T10:38:36.312Z,92275.00
2023-05-12T10:39:36.399Z,92274.00
2023-05-12T10:40:36.450Z,92281.00
2023-05-12T10:41:36.507Z,92274.00
2023-05-12T10:42:36.570Z,92268.00
2023-05-12T10:43:36.628Z,92270.00
2023-05-12T10:44:36.694Z,92264.00
2023-05-12T10:45:36.757Z,92264.00
2023-05-12T10:46:36.850Z,92264.00
2023-05-12T10:47:36.923Z,92266.00
2023-05-12T10:48:36.953Z,92264.00
2023-05-12T10:49:37.057Z,92260.00
2023-05-12T10:50:37.069Z,92262.00
2023-05-12T10:51:37.113Z,92266.00
2023-05-12T10:52:37.170Z,92256.00
2023-05-12T10:53:48.251Z,92258.00
2023-05-12T10:54:38.229Z,92264.00
2023-05-12T10:55:37.298Z,92258.00
2023-05-12T10:56:37.428Z,92262.00
2023-05-12T10:57:37.474Z,92260.00
2023-05-12T10:58:37.488Z,92262.00
2023-05-12T10:59:37.803Z,92268.00
2023-05-12T11:00:37.737Z,92264.00
2023-05-12T11:01:37.834Z,92256.00
2023-05-12T11:02:38.576Z,92254.00
2023-05-12T11:03:38.514Z,92254.00
2023-05-12T11:04:37.543Z,92260.00
2023-05-12T11:06:37.637Z,92256.00
2023-05-12T11:07:37.821Z,92254.00
2023-05-12T11:08:37.918Z,92254.00
2023-05-12T11:09:41.734Z,92260.00
2023-05-12T11:10:39.663Z,92258.00
2023-05-12T11:11:38.450Z,92254.00
2023-05-12T11:12:37.695Z,92258.00
2023-05-12T11:13:37.442Z,92260.00
2023-05-12T11:14:37.427Z,92256.00
2023-05-12T11:15:37.448Z,92258.00
2023-05-12T11:16:37.533Z,92262.00
2023-05-12T11:17:37.516Z,92260.00
2023-05-12T11:18:37.568Z,92258.00
2023-05-12T11:19:37.544Z,92254.00
2023-05-12T11:20:37.578Z,92252.00
2023-05-12T11:21:37.584Z,92254.00
2023-05-12T11:22:37.614Z,92252.00
2023-05-12T11:23:37.634Z,92248.00
2023-05-12T11:24:37.697Z,92244.00
2023-05-12T11:25:37.724Z,92250.00
2023-05-12T11:26:37.714Z,92254.00
2023-05-12T11:27:37.769Z,92250.00
2023-05-12T11:28:38.620Z,92242.00
2023-05-12T11:29:37.817Z,92248.00
2023-05-12T11:30:37.855Z,92244.00
2023-05-12T11:31:37.907Z,92246.00
2023-05-12T11:32:37.976Z,92248.00
2023-05-12T11:33:37.917Z,92242.00
2023-05-12T11:34:37.929Z,92242.00
2023-05-12T11:35:37.953Z,92240.00
2023-05-12T11:36:37.947Z,92240.00
2023-05-12T11:37:37.964Z,92244.00
2023-05-12T11:38:37.962Z,92238.00
2023-05-12T11:39:37.976Z,92236.00
2023-05-12T11:40:38.012Z,92240.00
2023-05-12T11:41:38.009Z,92246.00
2023-05-12T11:42:38.011Z,92238.00
2023-05-12T11:43:38.016Z,92238.00
2023-05-12T11:44:38.125Z,92240.00
2023-05-12T11:45:38.029Z,92236.00
2023-05-12T11:46:38.003Z,92236.00
2023-05-12T11:47:38.012Z,92238.00
2023-05-12T11:48:38.058Z,92240.00